Cape Town, South Africa

6:07 AM SAST on September 03, 2014 (GMT +0200)
St Duma, Kuilsriver | Change Station
CLOSE
Current Station
Personal Weather Station
Location: Cape Town, WESTERN CAPE
Elevation: 236 ft
Nearby Weather Stations

Elev 236 ft 33.94 °S, 18.69 °E | Updated 2 minutes ago

Partly Cloudy
Partly Cloudy
52.9 °F
Feels Like 52.9 °F
N
2.0
Wind Variable Wind from NE
Gusts 3.8 mph

Today
High -- | Low -- °F
--% Chance of Precip.
Yesterday
High -- | Low -- °F
Precip. -- in
7:01 AM 6:28 PM
First Quarter, 58% visible
Pressure 30.09 in
Visibility 3.7 miles
Clouds Few 500 ft
Dew Point 52 °F
Humidity 98%
Rainfall 0.00 in
Snow Depth Not available.
UV 0 out of 12
Pollen Not available.
Air Quality Not available.
Flu Activity Not available.
METAR FACT 030400Z 04007KT 6000 FEW005 10/09 Q1019 TEMPO 3000 BR

More Conditions Fewer Conditions

Pressure 30.09 in
Visibility 3.7 miles
Clouds Few 500 ft
Dew Point 52 °F
Humidity 98%
Rainfall 0.00 in
Snow Depth Not available.
UV 0 out of 12
Pollen Not available.
Air Quality Not available.
Flu Activity Not available.
METAR FACT 030400Z 04007KT 6000 FEW005 10/09 Q1019 TEMPO 3000 BR

More Conditions Fewer Conditions

10-Day Weather Forecast

Almanac

Astronomy

Sep. 03, 2014 Rise Set
Actual Time 7:01 AM SAST 6:28 PM SAST
Civil Twilight 6:36 AM SAST 6:54 PM SAST
Nautical Twilight 6:07 AM SAST 7:23 PM SAST
Astronomical Twilight 5:38 AM SAST 7:51 PM SAST
Moon 12:35 PM SAST 1:54 AM SAST
Length of Visible Light 12h 17m
Length of Day
11h 27m
Tomorrow will be 2m 0s longer.
First Quarter, 58% of the Moon is Illuminated
Today
First Quarter
Sep 8
Full
Sep 15
Last Quarter
Sep 24
New
Oct 1
First Quarter

Yesterday's Extremes

Country Highs Country Lows

Community

WunderPhotos

Upload Photos

1,749,866 photos uploaded!

Nearby

Snow Depth

Not available.

Earthquake Activity

City Distance Mag. Time & Date
No recent earthquake activity has been reported nearby.
Minimum magnitude displayed is 2.5.

Coastal Water Temperatures

Place Temperature
No Stations Reporting

Nearby Weather Stations